CheckWX is a tool to help pilots better visualize weather data.  It is not intended as a substitute for an official pre-flight weather briefing.

14:19:14 UTC

KEPH METAR
Ephrata Municipal Airport
Ephrata, Washington, USA
Current

26 mins ago

KEPH 221353Z AUTO 36006KT 10SM CLR 07/03 A3020 RMK AO2 SLP230 T00670028
Observed
Apr-22 @ 13:53 UTC
Wind
  • 360° at 6 KTS
Visibility
10 SM
Flight Rules
VFR
Cloud Levels
  • Clear skies
Temperature
C / 45°F
Dewpoint
C / 37°F
Humidity
76%
Altimeter
30.2" Hg
Pressure
1022.72 hPa
Previous

1 hour ago

KEPH 221253Z AUTO 01008KT 10SM CLR 04/02 A3018 RMK AO2 SLP220 T00390017
Observed
Apr-22 @ 12:53 UTC
Wind
  • 010° at 8 KTS
Visibility
10 SM
Flight Rules
VFR
Cloud Levels
  • Clear skies
Temperature
C / 39°F
Dewpoint
C / 36°F
Humidity
87%
Altimeter
30.18" Hg
Pressure
1022.02 hPa
Previous

2 hours ago

KEPH 221153Z AUTO 36005KT 10SM CLR 04/02 A3018 RMK AO2 SLP220 T00440022 10133 20039 52003
Observed
Apr-22 @ 11:53 UTC
Wind
  • 360° at 5 KTS
Visibility
10 SM
Flight Rules
VFR
Cloud Levels
  • Clear skies
Temperature
C / 39°F
Dewpoint
C / 36°F
Humidity
87%
Altimeter
30.18" Hg
Pressure
1022.02 hPa